createdAt,value
2023-02-25T00:01:14.439Z,56.67
2023-02-25T00:03:41.499Z,51.88
2023-02-25T00:06:13.359Z,50.55
2023-02-25T00:08:43.178Z,47.45
2023-02-25T00:11:10.063Z,49.00
2023-02-25T00:13:38.680Z,47.28
2023-02-25T00:16:06.739Z,45.60
2023-02-25T00:18:33.744Z,45.65
2023-02-25T00:21:00.316Z,46.30
2023-02-25T00:23:26.866Z,45.95
2023-02-25T00:26:05.753Z,43.42
2023-02-25T00:28:33.919Z,42.33
2023-02-25T00:31:05.431Z,40.50
2023-02-25T00:33:31.980Z,39.08
2023-02-25T00:35:58.470Z,40.72
2023-02-25T00:38:24.991Z,38.78
2023-02-25T00:40:51.462Z,41.47
2023-02-25T00:43:17.975Z,37.28
2023-02-25T00:45:44.485Z,43.92
2023-02-25T00:48:11.027Z,36.13
2023-02-25T00:50:39.555Z,32.25
2023-02-25T00:53:06.125Z,32.85
2023-02-25T00:55:33.366Z,39.60
2023-02-25T00:58:02.829Z,34.58
2023-02-25T01:00:30.482Z,32.60
2023-02-25T01:02:57.939Z,34.88
2023-02-25T01:05:25.396Z,33.78
2023-02-25T01:07:52.055Z,32.58
2023-02-25T01:10:19.009Z,31.10
2023-02-25T01:12:45.794Z,29.55
2023-02-25T01:15:13.147Z,27.67
2023-02-25T01:17:39.714Z,29.65
2023-02-25T01:20:11.345Z,27.27
2023-02-25T01:22:41.572Z,25.45
2023-02-25T01:25:13.098Z,26.15
2023-02-25T01:27:40.016Z,26.10
2023-02-25T01:30:08.117Z,29.85
2023-02-25T01:32:34.881Z,23.40
2023-02-25T01:35:02.192Z,24.00
2023-02-25T01:37:28.832Z,21.42
2023-02-25T01:39:55.488Z,23.15
2023-02-25T01:42:22.266Z,27.70
2023-02-25T01:45:24.391Z,22.60
2023-02-25T01:48:05.131Z,21.80
2023-02-25T01:50:37.434Z,20.60
2023-02-25T01:53:05.866Z,22.05
2023-02-25T01:55:33.079Z,20.95
2023-02-25T01:58:00.753Z,19.48
2023-02-25T02:00:30.541Z,23.48
2023-02-25T02:02:58.053Z,17.73
2023-02-25T02:05:37.567Z,19.50
2023-02-25T02:08:05.583Z,23.05
2023-02-25T02:10:32.103Z,19.00
2023-02-25T02:12:58.719Z,17.95
2023-02-25T02:15:25.266Z,18.83
2023-02-25T02:18:03.154Z,18.33
2023-02-25T02:21:02.808Z,20.45
2023-02-25T02:23:54.107Z,18.48
2023-02-25T02:26:49.721Z,17.67
2023-02-25T02:29:32.130Z,16.00
2023-02-25T02:32:15.330Z,18.20
2023-02-25T02:34:47.134Z,15.93
2023-02-25T02:37:13.598Z,15.70
2023-02-25T02:39:44.918Z,19.02
2023-02-25T02:42:16.910Z,16.42
2023-02-25T02:44:55.457Z,16.52
2023-02-25T02:47:28.224Z,17.52
2023-02-25T02:50:02.744Z,17.23
2023-02-25T02:52:33.061Z,17.30
2023-02-25T02:55:06.906Z,14.25
2023-02-25T02:57:36.802Z,15.10
2023-02-25T03:00:17.749Z,15.65
2023-02-25T03:03:38.699Z,15.57
2023-02-25T03:06:10.391Z,14.60
2023-02-25T03:09:18.577Z,12.95
2023-02-25T03:11:45.482Z,19.25
2023-02-25T03:14:13.203Z,12.48
2023-02-25T03:16:46.725Z,13.85
2023-02-25T03:19:18.512Z,10.82
2023-02-25T03:22:27.802Z,13.00
2023-02-25T03:24:58.079Z,12.73
2023-02-25T03:27:34.322Z,11.73
2023-02-25T03:30:16.764Z,13.77
2023-02-25T03:32:47.761Z,13.52
2023-02-25T03:35:17.436Z,10.48
2023-02-25T03:37:48.947Z,10.40
2023-02-25T03:40:18.203Z,11.52
2023-02-25T03:42:52.394Z,13.95
2023-02-25T03:45:21.459Z,9.52
2023-02-25T03:47:48.296Z,11.27
2023-02-25T03:50:21.717Z,9.57
2023-02-25T03:52:48.436Z,10.00
2023-02-25T03:55:17.150Z,10.93
2023-02-25T03:57:45.950Z,12.60
2023-02-25T04:00:23.089Z,12.63
2023-02-25T04:02:50.415Z,12.25
2023-02-25T04:05:19.030Z,9.80
2023-02-25T04:07:45.982Z,11.73
2023-02-25T04:10:14.968Z,11.85
2023-02-25T04:12:41.975Z,10.95
2023-02-25T04:15:09.326Z,13.18
2023-02-25T04:17:37.216Z,12.65
2023-02-25T04:20:05.124Z,13.00
2023-02-25T04:22:32.172Z,10.13
2023-02-25T04:24:58.826Z,10.55
2023-02-25T04:27:26.368Z,11.45
2023-02-25T04:29:52.878Z,10.30
2023-02-25T04:32:19.431Z,14.30
2023-02-25T04:34:46.054Z,10.85
2023-02-25T04:37:12.573Z,8.57
2023-02-25T04:39:39.081Z,11.05
2023-02-25T04:42:05.661Z,7.28
2023-02-25T04:44:32.160Z,10.32
2023-02-25T04:46:58.671Z,9.55
2023-02-25T04:49:25.228Z,8.23
2023-02-25T04:51:52.043Z,10.38
2023-02-25T04:54:19.799Z,9.27
2023-02-25T04:56:46.740Z,5.97
2023-02-25T04:59:14.041Z,10.63
2023-02-25T05:01:41.013Z,13.13
2023-02-25T05:04:07.721Z,9.07
2023-02-25T05:06:34.772Z,9.45
2023-02-25T05:09:01.340Z,8.70
2023-02-25T05:11:29.067Z,6.85
2023-02-25T05:13:55.945Z,6.90
2023-02-25T05:16:23.851Z,9.45
2023-02-25T05:18:50.737Z,10.07
2023-02-25T05:21:20.156Z,5.80
2023-02-25T05:23:48.462Z,7.07
2023-02-25T05:26:17.140Z,10.35
2023-02-25T05:28:43.877Z,7.55
2023-02-25T05:31:12.213Z,9.07
2023-02-25T05:33:40.083Z,6.85
2023-02-25T05:36:09.036Z,9.40
2023-02-25T05:38:36.794Z,5.70
2023-02-25T05:41:05.949Z,8.75
2023-02-25T05:43:32.862Z,5.40
2023-02-25T05:46:01.547Z,8.38
2023-02-25T05:48:28.013Z,6.65
2023-02-25T05:51:01.696Z,9.30
2023-02-25T05:53:28.272Z,7.85
2023-02-25T05:55:55.711Z,7.38
2023-02-25T05:58:22.994Z,7.68
2023-02-25T06:00:49.703Z,6.65
2023-02-25T06:03:16.791Z,6.80
2023-02-25T06:05:44.073Z,6.38
2023-02-25T06:08:11.712Z,7.80
2023-02-25T06:10:41.415Z,6.57
2023-02-25T06:13:09.444Z,7.03
2023-02-25T06:15:40.618Z,8.90
2023-02-25T06:18:07.756Z,6.80
2023-02-25T06:20:35.295Z,8.38
2023-02-25T06:23:02.818Z,11.07
2023-02-25T06:25:29.941Z,5.07
2023-02-25T06:27:57.612Z,7.63
2023-02-25T06:30:24.772Z,4.32
2023-02-25T06:32:51.822Z,7.72
2023-02-25T06:35:20.964Z,6.63
2023-02-25T06:37:47.582Z,6.80
2023-02-25T06:40:15.222Z,4.47
2023-02-25T06:42:42.075Z,6.05
2023-02-25T06:45:09.044Z,7.70
2023-02-25T06:47:35.556Z,4.15
2023-02-25T06:50:02.742Z,6.57
2023-02-25T06:52:29.476Z,5.30
2023-02-25T06:54:56.053Z,8.88
2023-02-25T06:57:22.656Z,7.95
2023-02-25T06:59:49.365Z,7.13
2023-02-25T07:02:16.306Z,7.68
2023-02-25T07:04:44.037Z,8.10
2023-02-25T07:07:10.917Z,6.55
2023-02-25T07:09:37.434Z,9.85
2023-02-25T07:12:04.259Z,8.35
2023-02-25T07:14:30.863Z,10.10
2023-02-25T07:16:57.402Z,9.18
2023-02-25T07:19:23.905Z,10.25
2023-02-25T07:21:50.419Z,10.20
2023-02-25T07:24:17.485Z,15.25
2023-02-25T07:26:44.027Z,13.95
2023-02-25T07:29:10.755Z,16.15
2023-02-25T07:31:37.376Z,21.40
2023-02-25T07:34:04.436Z,19.85
2023-02-25T07:36:37.487Z,19.73
2023-02-25T07:39:06.759Z,19.92
2023-02-25T07:41:33.334Z,20.77
2023-02-25T07:43:59.979Z,22.23
2023-02-25T07:46:27.267Z,23.48
2023-02-25T07:48:53.833Z,26.08
2023-02-25T07:51:22.995Z,25.17
2023-02-25T07:53:51.089Z,28.60
2023-02-25T07:56:19.394Z,37.88
2023-02-25T07:58:46.199Z,41.95
2023-02-25T08:01:26.618Z,56.22
2023-02-25T08:03:55.516Z,64.25
2023-02-25T08:06:22.351Z,65.07
2023-02-25T08:08:51.953Z,92.90
2023-02-25T08:11:20.304Z,72.85
2023-02-25T08:13:47.325Z,79.00
2023-02-25T08:16:16.865Z,90.35
2023-02-25T08:18:43.660Z,83.93
2023-02-25T08:21:11.930Z,84.10
2023-02-25T08:23:38.849Z,86.13
2023-02-25T08:26:06.417Z,84.93
2023-02-25T08:28:36.955Z,75.13
2023-02-25T08:31:04.039Z,79.57
2023-02-25T08:33:30.958Z,71.97
2023-02-25T08:36:12.782Z,71.68
2023-02-25T08:38:39.805Z,69.45
2023-02-25T08:41:07.749Z,67.88
2023-02-25T08:43:35.431Z,66.88
2023-02-25T08:46:02.211Z,62.25
2023-02-25T08:48:29.116Z,70.20
2023-02-25T08:50:55.697Z,65.72
2023-02-25T08:53:23.386Z,62.95
2023-02-25T08:55:51.339Z,67.15
2023-02-25T08:58:17.941Z,64.82
2023-02-25T09:00:44.501Z,56.25
2023-02-25T09:03:11.121Z,54.88
2023-02-25T09:05:38.080Z,61.35
2023-02-25T09:08:04.970Z,57.20
2023-02-25T09:10:48.352Z,55.00
2023-02-25T09:15:43.853Z,53.28
2023-02-25T09:18:11.678Z,50.38
2023-02-25T09:20:38.315Z,52.55
2023-02-25T09:23:04.967Z,49.15
2023-02-25T09:25:31.760Z,46.65
2023-02-25T09:27:58.305Z,45.40
2023-02-25T09:30:24.816Z,46.70
2023-02-25T09:32:51.844Z,46.47
2023-02-25T09:35:18.509Z,46.53
2023-02-25T09:37:44.990Z,45.92
2023-02-25T09:40:17.933Z,44.28
2023-02-25T09:43:07.618Z,41.90
2023-02-25T09:45:36.295Z,42.10
2023-02-25T09:48:19.776Z,46.75
2023-02-25T09:50:53.644Z,41.28
2023-02-25T09:53:39.347Z,43.65
2023-02-25T09:56:08.182Z,37.97
2023-02-25T09:58:44.609Z,39.33
2023-02-25T10:01:11.081Z,40.05
2023-02-25T10:04:05.636Z,42.97
2023-02-25T10:07:01.492Z,36.28
2023-02-25T10:10:01.882Z,38.15
2023-02-25T10:12:40.472Z,41.22
2023-02-25T10:15:53.342Z,38.00
2023-02-25T10:18:38.147Z,33.33
2023-02-25T10:21:17.379Z,32.22
2023-02-25T10:24:13.962Z,29.52
2023-02-25T10:26:46.572Z,32.03
2023-02-25T10:29:28.444Z,32.80
2023-02-25T10:32:00.004Z,38.15
2023-02-25T10:34:31.097Z,26.67
2023-02-25T10:37:00.209Z,29.48
2023-02-25T10:39:28.620Z,27.90
2023-02-25T10:41:55.328Z,28.98
2023-02-25T10:44:22.014Z,28.13
2023-02-25T10:47:00.568Z,28.20
2023-02-25T10:49:30.122Z,26.55
2023-02-25T10:52:03.379Z,22.83
2023-02-25T10:54:47.736Z,23.52
2023-02-25T10:57:16.801Z,22.65
2023-02-25T10:59:45.234Z,21.77
2023-02-25T11:02:31.469Z,25.08
2023-02-25T11:04:58.355Z,21.00
2023-02-25T11:07:33.101Z,20.00
2023-02-25T11:10:19.515Z,16.63
2023-02-25T11:12:48.312Z,22.58
2023-02-25T11:15:44.865Z,19.23
2023-02-25T11:18:29.322Z,19.55
2023-02-25T11:21:07.234Z,19.17
2023-02-25T11:23:35.825Z,17.40
2023-02-25T11:26:03.138Z,16.30
2023-02-25T11:28:34.455Z,17.73
2023-02-25T11:31:10.283Z,11.60
2023-02-25T11:33:40.515Z,14.60
2023-02-25T11:36:07.919Z,16.95
2023-02-25T11:38:40.069Z,12.85
2023-02-25T11:41:17.684Z,14.35
2023-02-25T11:43:44.515Z,16.60
2023-02-25T11:46:32.692Z,13.80
2023-02-25T11:49:20.641Z,14.05
2023-02-25T11:52:35.914Z,11.38
2023-02-25T11:55:22.412Z,13.93
2023-02-25T11:57:48.857Z,10.95
2023-02-25T12:01:06.473Z,14.27
2023-02-25T12:04:04.084Z,10.95
2023-02-25T12:06:52.598Z,11.57
2023-02-25T12:09:34.000Z,15.55
2023-02-25T12:12:20.207Z,10.15
2023-02-25T12:14:58.711Z,13.02
2023-02-25T12:18:00.897Z,10.52
2023-02-25T12:20:50.142Z,10.13
2023-02-25T12:23:43.659Z,13.40
2023-02-25T12:26:20.690Z,11.18
2023-02-25T12:28:50.970Z,9.50
2023-02-25T12:31:47.260Z,11.70
2023-02-25T12:34:32.072Z,10.32
2023-02-25T12:37:48.179Z,11.55
2023-02-25T12:40:27.412Z,8.50
2023-02-25T12:43:09.271Z,8.13
2023-02-25T12:45:38.822Z,8.98
2023-02-25T12:48:35.130Z,8.05
2023-02-25T12:51:14.779Z,9.73
2023-02-25T12:53:57.717Z,7.93
2023-02-25T12:56:36.580Z,8.13
2023-02-25T12:59:30.725Z,8.68
2023-02-25T13:02:35.344Z,6.65
2023-02-25T13:08:11.542Z,5.82
2023-02-25T13:10:41.273Z,8.57
2023-02-25T13:13:19.997Z,7.72
2023-02-25T13:16:15.292Z,9.65
2023-02-25T13:19:00.263Z,8.45
2023-02-25T13:21:44.291Z,5.43
2023-02-25T13:27:27.699Z,5.82
2023-02-25T13:30:12.128Z,7.13
2023-02-25T13:32:56.656Z,5.03
2023-02-25T13:35:42.578Z,9.63
2023-02-25T13:38:36.936Z,7.20
2023-02-25T13:46:42.680Z,8.55
2023-02-25T13:49:49.963Z,7.43
2023-02-25T13:52:44.181Z,5.63
2023-02-25T13:55:24.032Z,5.72
2023-02-25T13:58:23.680Z,6.47
2023-02-25T14:01:27.175Z,8.82
2023-02-25T14:04:12.259Z,6.60
2023-02-25T14:07:13.310Z,6.05
2023-02-25T14:10:12.497Z,6.20
2023-02-25T14:13:11.834Z,5.30
2023-02-25T14:15:56.624Z,5.60
2023-02-25T14:18:44.814Z,7.78
2023-02-25T14:21:56.819Z,19.67
2023-02-25T14:24:42.193Z,32.30
2023-02-25T14:27:31.258Z,48.22
2023-02-25T14:30:18.684Z,59.88
2023-02-25T14:32:57.460Z,71.75
2023-02-25T14:35:59.235Z,69.95
2023-02-25T14:39:04.302Z,66.10
2023-02-25T14:41:54.064Z,72.05
2023-02-25T14:44:35.515Z,76.60
2023-02-25T14:47:16.410Z,66.70
2023-02-25T14:49:54.802Z,68.10
2023-02-25T14:52:41.523Z,80.85
2023-02-25T14:55:08.040Z,97.00
2023-02-25T14:57:44.117Z,85.55
2023-02-25T15:00:24.718Z,92.93
2023-02-25T15:03:09.516Z,80.03
2023-02-25T15:06:07.142Z,77.85
2023-02-25T15:08:58.546Z,81.93
2023-02-25T15:11:37.550Z,84.32
2023-02-25T15:14:25.767Z,74.63
2023-02-25T15:17:20.328Z,78.70
2023-02-25T15:20:22.336Z,71.95
2023-02-25T15:23:07.405Z,71.30
2023-02-25T15:25:38.824Z,70.20
2023-02-25T15:28:31.292Z,68.22
2023-02-25T15:31:01.049Z,62.83
2023-02-25T15:33:33.955Z,61.90
2023-02-25T15:36:19.560Z,64.80
2023-02-25T15:38:47.331Z,62.03
2023-02-25T15:41:29.383Z,64.25
2023-02-25T15:44:00.313Z,59.55
2023-02-25T15:46:35.986Z,57.45
2023-02-25T15:49:27.693Z,56.65
2023-02-25T15:51:59.764Z,50.03
2023-02-25T15:54:32.036Z,53.97
2023-02-25T15:57:01.230Z,49.35
2023-02-25T15:59:44.160Z,49.92
2023-02-25T16:02:34.703Z,43.15
2023-02-25T16:05:09.975Z,46.25
2023-02-25T16:07:40.186Z,51.67
2023-02-25T16:10:23.897Z,45.70
2023-02-25T16:12:53.914Z,38.95
2023-02-25T16:15:38.376Z,43.75
2023-02-25T16:18:22.031Z,38.45
2023-02-25T16:20:52.875Z,38.42
2023-02-25T16:23:19.830Z,38.17
2023-02-25T16:25:46.305Z,38.83
2023-02-25T16:28:40.580Z,38.83
2023-02-25T16:33:53.571Z,38.22
2023-02-25T16:36:44.197Z,35.63
2023-02-25T16:39:26.308Z,35.20
2023-02-25T16:41:53.014Z,33.92
2023-02-25T16:44:32.947Z,31.30
2023-02-25T16:46:59.481Z,34.80
2023-02-25T16:49:36.841Z,33.45
2023-02-25T16:52:04.571Z,33.42
2023-02-25T16:54:38.093Z,27.75
2023-02-25T16:57:09.657Z,28.50
2023-02-25T16:59:38.494Z,30.00
2023-02-25T17:02:17.161Z,30.20
2023-02-25T17:04:49.230Z,31.65
2023-02-25T17:07:25.189Z,31.38
2023-02-25T17:09:56.180Z,32.45
2023-02-25T17:12:43.644Z,31.58
2023-02-25T17:15:29.103Z,31.67
2023-02-25T17:18:05.882Z,31.98
2023-02-25T17:20:32.946Z,28.73
2023-02-25T17:23:05.491Z,32.47
2023-02-25T17:25:38.838Z,30.52
2023-02-25T17:28:07.633Z,31.50
2023-02-25T17:30:37.156Z,30.70
2023-02-25T17:33:04.918Z,30.25
2023-02-25T17:35:32.840Z,32.38
2023-02-25T17:37:59.602Z,27.42
2023-02-25T17:40:28.573Z,30.17
2023-02-25T17:43:44.171Z,29.10
2023-02-25T17:46:15.241Z,32.00
2023-02-25T17:48:45.695Z,31.02
2023-02-25T17:51:13.668Z,32.72
2023-02-25T17:53:51.239Z,32.13
2023-02-25T17:56:25.485Z,31.23
2023-02-25T17:58:57.862Z,29.92
2023-02-25T18:01:28.775Z,31.80
2023-02-25T18:03:55.779Z,32.90
2023-02-25T18:06:44.637Z,31.83
2023-02-25T18:09:35.922Z,32.00
2023-02-25T18:12:05.815Z,31.92
2023-02-25T18:14:37.067Z,30.95
2023-02-25T18:17:13.474Z,30.77
2023-02-25T18:19:44.406Z,28.13
2023-02-25T18:22:36.946Z,32.08
2023-02-25T18:25:08.144Z,29.67
2023-02-25T18:27:37.639Z,31.23
2023-02-25T18:30:19.345Z,31.92
2023-02-25T18:32:46.975Z,32.13
2023-02-25T18:35:14.220Z,30.75
2023-02-25T18:37:43.336Z,28.70
2023-02-25T18:40:40.747Z,33.42
2023-02-25T18:43:07.647Z,25.95
2023-02-25T18:45:34.661Z,25.80
2023-02-25T18:48:01.754Z,25.60
2023-02-25T18:50:33.621Z,26.75
2023-02-25T18:53:00.879Z,32.53
2023-02-25T18:55:32.866Z,28.17
2023-02-25T18:58:01.111Z,25.17
2023-02-25T19:00:27.785Z,25.52
2023-02-25T19:02:58.008Z,25.50
2023-02-25T19:05:25.608Z,25.60
2023-02-25T19:07:52.627Z,24.02
2023-02-25T19:10:25.280Z,24.48
2023-02-25T19:12:59.029Z,24.33
2023-02-25T19:17:52.033Z,26.20
2023-02-25T19:20:20.530Z,27.75
2023-02-25T19:22:49.464Z,22.83
2023-02-25T19:25:29.010Z,22.75
2023-02-25T19:27:56.900Z,21.60
2023-02-25T19:30:25.977Z,23.27
2023-02-25T19:32:53.001Z,22.48
2023-02-25T19:35:19.740Z,23.92
2023-02-25T19:37:46.313Z,18.35
2023-02-25T19:40:15.400Z,20.45
2023-02-25T19:42:43.710Z,19.77
2023-02-25T19:45:16.762Z,23.15
2023-02-25T19:47:43.678Z,20.15
2023-02-25T19:50:11.627Z,18.38
2023-02-25T19:52:38.961Z,19.42
2023-02-25T19:55:06.555Z,20.00
2023-02-25T19:57:33.592Z,20.00
2023-02-25T20:00:00.355Z,19.80
2023-02-25T20:02:26.870Z,18.33
2023-02-25T20:04:53.402Z,17.73
2023-02-25T20:07:19.942Z,18.88
2023-02-25T20:09:46.588Z,18.30
2023-02-25T20:12:14.061Z,19.35
2023-02-25T20:14:40.626Z,15.98
2023-02-25T20:17:07.279Z,17.70
2023-02-25T20:19:34.485Z,16.65
2023-02-25T20:22:02.874Z,16.27
2023-02-25T20:24:30.518Z,18.70
2023-02-25T20:26:57.092Z,16.60
2023-02-25T20:29:24.032Z,18.30
2023-02-25T20:31:50.724Z,20.77
2023-02-25T20:34:21.307Z,23.55
2023-02-25T20:36:56.775Z,23.55
2023-02-25T20:39:38.471Z,27.98
2023-02-25T20:42:05.761Z,30.58
2023-02-25T20:44:32.773Z,27.73
2023-02-25T20:46:59.548Z,31.75
2023-02-25T20:49:26.338Z,31.58
2023-02-25T20:51:53.278Z,30.60
2023-02-25T20:54:20.250Z,32.15
2023-02-25T20:56:48.366Z,31.80
2023-02-25T20:59:16.036Z,34.45
2023-02-25T21:01:42.847Z,31.60
2023-02-25T21:04:10.300Z,35.38
2023-02-25T21:06:38.204Z,30.65
2023-02-25T21:09:06.712Z,29.95
2023-02-25T21:11:33.740Z,33.53
2023-02-25T21:14:00.281Z,32.30
2023-02-25T21:16:27.165Z,32.35
2023-02-25T21:18:54.110Z,33.20
2023-02-25T21:21:21.754Z,30.17
2023-02-25T21:23:49.303Z,31.52
2023-02-25T21:26:16.156Z,27.83
2023-02-25T21:28:42.907Z,30.83
2023-02-25T21:31:12.349Z,32.70
2023-02-25T21:33:40.455Z,30.17
2023-02-25T21:36:09.043Z,29.63
2023-02-25T21:38:36.871Z,31.85
2023-02-25T21:41:14.286Z,32.50
2023-02-25T21:43:41.967Z,31.40
2023-02-25T21:46:11.765Z,34.05
2023-02-25T21:48:39.753Z,33.42
2023-02-25T21:51:07.720Z,33.05
2023-02-25T21:53:34.243Z,41.05
2023-02-25T21:56:17.359Z,50.60
2023-02-25T21:58:44.674Z,63.20
2023-02-25T22:01:23.203Z,68.53
2023-02-25T22:03:49.873Z,78.40
2023-02-25T22:06:17.035Z,79.00
2023-02-25T22:08:45.634Z,85.30
2023-02-25T22:11:17.823Z,86.88
2023-02-25T22:13:45.052Z,87.85
2023-02-25T22:16:14.911Z,90.55
2023-02-25T22:18:42.224Z,89.03
2023-02-25T22:21:15.115Z,85.18
2023-02-25T22:23:43.516Z,88.23
2023-02-25T22:26:15.798Z,86.88
2023-02-25T22:28:43.402Z,83.18
2023-02-25T22:31:11.986Z,88.13
2023-02-25T22:33:39.038Z,80.65
2023-02-25T22:36:07.296Z,79.80
2023-02-25T22:38:37.473Z,80.63
2023-02-25T22:41:05.526Z,78.60
2023-02-25T22:43:33.456Z,76.25
2023-02-25T22:46:09.078Z,76.70
2023-02-25T22:48:36.946Z,72.68
2023-02-25T22:51:03.692Z,70.43
2023-02-25T22:53:30.528Z,77.13
2023-02-25T22:56:09.118Z,74.13
2023-02-25T22:58:38.694Z,72.55
2023-02-25T23:01:05.528Z,69.20
2023-02-25T23:03:32.039Z,62.85
2023-02-25T23:05:58.512Z,63.63
2023-02-25T23:08:25.120Z,65.72
2023-02-25T23:10:51.812Z,62.13
2023-02-25T23:13:20.030Z,62.75
2023-02-25T23:15:47.867Z,61.25
2023-02-25T23:18:15.763Z,60.00
2023-02-25T23:20:42.923Z,55.17
2023-02-25T23:23:09.640Z,58.33
2023-02-25T23:25:39.867Z,56.75
2023-02-25T23:28:08.769Z,55.58
2023-02-25T23:30:39.359Z,52.10
2023-02-25T23:33:06.328Z,50.92
2023-02-25T23:35:34.024Z,51.58
2023-02-25T23:38:00.842Z,48.92
2023-02-25T23:40:28.883Z,48.00
2023-02-25T23:42:56.280Z,46.63
2023-02-25T23:45:22.963Z,50.22
2023-02-25T23:47:49.899Z,44.22
2023-02-25T23:50:17.674Z,45.10
2023-02-25T23:52:46.522Z,43.00
2023-02-25T23:55:14.501Z,38.75
2023-02-25T23:57:41.050Z,40.22
